createdAt,value
2022-10-09T00:01:30.906Z,13.03
2022-10-09T00:04:00.122Z,13.01
2022-10-09T00:06:31.348Z,12.96
2022-10-09T00:09:02.964Z,12.86
2022-10-09T00:11:33.154Z,12.81
2022-10-09T00:14:01.787Z,12.71
2022-10-09T00:16:31.691Z,12.71
2022-10-09T00:19:00.084Z,12.68
2022-10-09T00:21:31.009Z,12.65
2022-10-09T00:24:01.925Z,12.58
2022-10-09T00:26:30.677Z,12.58
2022-10-09T00:28:59.273Z,12.55
2022-10-09T00:31:27.522Z,12.55
2022-10-09T00:33:57.275Z,12.57
2022-10-09T00:36:27.386Z,12.59
2022-10-09T00:38:56.713Z,12.58
2022-10-09T00:41:28.589Z,12.61
2022-10-09T00:43:59.222Z,12.66
2022-10-09T00:46:34.666Z,12.59
2022-10-09T00:49:14.453Z,12.53
2022-10-09T00:51:45.027Z,12.45
2022-10-09T00:54:17.107Z,12.58
2022-10-09T00:56:45.460Z,12.66
2022-10-09T00:59:14.311Z,12.57
2022-10-09T01:01:43.244Z,12.47
2022-10-09T01:04:13.084Z,12.49
2022-10-09T01:06:58.362Z,12.50
2022-10-09T01:09:39.190Z,12.47
2022-10-09T01:12:20.628Z,12.46
2022-10-09T01:14:59.523Z,12.45
2022-10-09T01:17:37.703Z,12.39
2022-10-09T01:20:37.348Z,12.32
2022-10-09T01:23:36.007Z,12.27
2022-10-09T01:26:18.052Z,12.22
2022-10-09T01:28:52.225Z,12.22
2022-10-09T01:31:21.822Z,12.19
2022-10-09T01:33:50.514Z,12.15
2022-10-09T01:36:20.230Z,12.10
2022-10-09T01:38:49.475Z,12.03
2022-10-09T01:41:18.429Z,11.94
2022-10-09T01:43:47.811Z,11.93
2022-10-09T01:46:22.721Z,11.95
2022-10-09T01:49:03.646Z,11.93
2022-10-09T01:51:45.577Z,11.95
2022-10-09T01:54:15.926Z,11.89
2022-10-09T01:56:48.812Z,11.82
2022-10-09T01:59:19.805Z,11.84
2022-10-09T02:01:49.815Z,11.89
2022-10-09T02:04:19.711Z,11.89
2022-10-09T02:06:48.659Z,11.80
2022-10-09T02:09:18.878Z,11.81
2022-10-09T02:11:53.949Z,11.72
2022-10-09T02:14:25.134Z,11.75
2022-10-09T02:17:03.764Z,11.70
2022-10-09T02:19:37.876Z,11.78
2022-10-09T02:22:11.671Z,11.65
2022-10-09T02:24:41.360Z,11.59
2022-10-09T02:27:12.303Z,11.59
2022-10-09T02:29:42.814Z,11.58
2022-10-09T02:32:11.745Z,11.53
2022-10-09T02:34:39.993Z,11.55
2022-10-09T02:37:09.783Z,11.49
2022-10-09T02:39:37.996Z,11.45
2022-10-09T02:42:06.504Z,11.44
2022-10-09T02:44:34.898Z,11.46
2022-10-09T02:47:07.731Z,11.41
2022-10-09T02:49:35.821Z,11.35
2022-10-09T02:52:29.736Z,11.37
2022-10-09T02:54:57.942Z,11.35
2022-10-09T02:57:26.117Z,11.37
2022-10-09T02:59:54.229Z,11.36
2022-10-09T03:02:23.718Z,11.23
2022-10-09T03:04:51.983Z,11.23
2022-10-09T03:07:20.035Z,11.23
2022-10-09T03:09:48.098Z,11.21
2022-10-09T03:12:21.198Z,11.15
2022-10-09T03:14:49.339Z,11.08
2022-10-09T03:17:17.471Z,11.07
2022-10-09T03:19:46.892Z,11.11
2022-10-09T03:22:14.927Z,11.02
2022-10-09T03:24:43.032Z,11.03
2022-10-09T03:27:11.075Z,11.05
2022-10-09T03:29:39.177Z,11.07
2022-10-09T03:32:07.433Z,11.05
2022-10-09T03:34:35.486Z,11.01
2022-10-09T03:37:05.810Z,10.94
2022-10-09T03:39:33.818Z,10.93
2022-10-09T03:42:01.806Z,10.85
2022-10-09T03:44:29.863Z,10.84
2022-10-09T03:46:58.552Z,10.78
2022-10-09T03:49:26.694Z,10.85
2022-10-09T03:51:54.687Z,10.88
2022-10-09T03:54:24.107Z,10.85
2022-10-09T03:56:52.380Z,10.87
2022-10-09T03:59:20.399Z,10.75
2022-10-09T04:01:48.449Z,10.76
2022-10-09T04:04:16.776Z,10.73
2022-10-09T04:06:45.153Z,10.68
2022-10-09T04:09:13.169Z,10.71
2022-10-09T04:11:42.570Z,10.73
2022-10-09T04:14:10.767Z,10.72
2022-10-09T04:16:38.827Z,10.71
2022-10-09T04:19:06.927Z,10.71
2022-10-09T04:21:34.976Z,10.60
2022-10-09T04:24:03.712Z,10.68
2022-10-09T04:26:31.772Z,10.67
2022-10-09T04:29:01.266Z,10.68
2022-10-09T04:31:29.463Z,10.64
2022-10-09T04:33:57.685Z,10.67
2022-10-09T04:36:26.251Z,10.69
2022-10-09T04:38:54.278Z,10.51
2022-10-09T04:41:24.319Z,10.49
2022-10-09T04:43:56.093Z,10.40
2022-10-09T04:46:26.987Z,10.43
2022-10-09T04:48:55.288Z,10.41
2022-10-09T04:51:23.407Z,10.45
2022-10-09T04:53:51.684Z,10.43
2022-10-09T04:56:21.415Z,10.40
2022-10-09T04:58:50.229Z,10.37
2022-10-09T05:01:21.356Z,10.39
2022-10-09T05:03:52.095Z,10.37
2022-10-09T05:06:21.986Z,10.36
2022-10-09T05:08:50.639Z,10.28
2022-10-09T05:11:21.897Z,10.29
2022-10-09T05:13:52.986Z,10.31
2022-10-09T05:16:23.783Z,10.36
2022-10-09T05:18:55.914Z,10.38
2022-10-09T05:21:24.748Z,10.37
2022-10-09T05:23:55.423Z,10.38
2022-10-09T05:26:25.987Z,10.45
2022-10-09T05:28:54.117Z,10.44
2022-10-09T05:31:25.840Z,10.45
2022-10-09T05:33:57.283Z,10.40
2022-10-09T05:36:25.408Z,10.34
2022-10-09T05:38:53.546Z,10.37
2022-10-09T05:41:21.652Z,10.39
2022-10-09T05:43:51.235Z,10.40
2022-10-09T05:46:21.629Z,10.48
2022-10-09T05:48:55.993Z,10.53
2022-10-09T05:51:26.968Z,10.56
2022-10-09T05:53:56.553Z,10.59
2022-10-09T05:56:27.277Z,10.63
2022-10-09T05:58:57.621Z,10.66
2022-10-09T06:01:28.451Z,10.67
2022-10-09T06:03:59.914Z,10.68
2022-10-09T06:06:31.004Z,10.59
2022-10-09T06:09:00.327Z,10.62
2022-10-09T06:11:31.643Z,10.65
2022-10-09T06:14:01.969Z,10.68
2022-10-09T06:16:32.836Z,10.71
2022-10-09T06:19:03.454Z,10.76
2022-10-09T06:21:31.930Z,10.84
2022-10-09T06:24:02.002Z,10.85
2022-10-09T06:26:31.624Z,10.80
2022-10-09T06:29:02.382Z,10.86
2022-10-09T06:31:33.125Z,10.89
2022-10-09T06:34:04.716Z,10.87
2022-10-09T06:36:36.250Z,10.84
2022-10-09T06:39:07.531Z,10.79
2022-10-09T06:41:35.975Z,10.83
2022-10-09T06:44:17.222Z,10.88
2022-10-09T06:46:49.473Z,10.90
2022-10-09T06:49:18.934Z,10.88
2022-10-09T06:51:47.140Z,10.91
2022-10-09T06:54:17.280Z,10.96
2022-10-09T06:56:45.640Z,10.98
2022-10-09T06:59:14.036Z,11.05
2022-10-09T07:01:42.415Z,11.07
2022-10-09T07:04:13.617Z,11.15
2022-10-09T07:06:46.666Z,11.19
2022-10-09T07:09:16.837Z,11.25
2022-10-09T07:11:48.809Z,11.39
2022-10-09T07:14:17.378Z,11.41
2022-10-09T07:16:48.363Z,11.52
2022-10-09T07:19:18.195Z,11.62
2022-10-09T07:21:50.016Z,11.78
2022-10-09T07:24:20.624Z,11.90
2022-10-09T07:26:49.467Z,11.96
2022-10-09T07:29:19.534Z,12.02
2022-10-09T07:31:47.786Z,11.96
2022-10-09T07:34:15.846Z,12.06
2022-10-09T07:36:44.035Z,12.22
2022-10-09T07:39:14.336Z,12.37
2022-10-09T07:41:43.295Z,12.42
2022-10-09T07:44:12.106Z,12.46
2022-10-09T07:46:40.276Z,12.47
2022-10-09T07:49:08.488Z,12.61
2022-10-09T07:51:36.684Z,12.82
2022-10-09T07:54:05.061Z,12.92
2022-10-09T07:56:37.850Z,12.98
2022-10-09T07:59:08.586Z,13.06
2022-10-09T08:01:37.353Z,13.22
2022-10-09T08:04:06.181Z,13.29
2022-10-09T08:06:34.456Z,13.39
2022-10-09T08:09:04.382Z,13.52
2022-10-09T08:11:35.212Z,13.71
2022-10-09T08:14:03.668Z,13.82
2022-10-09T08:16:33.394Z,14.03
2022-10-09T08:19:02.858Z,14.17
2022-10-09T08:21:32.850Z,14.21
2022-10-09T08:24:01.374Z,14.32
2022-10-09T08:26:31.694Z,14.49
2022-10-09T08:29:04.275Z,14.61
2022-10-09T08:31:33.157Z,14.62
2022-10-09T08:34:04.327Z,14.71
2022-10-09T08:36:33.143Z,14.76
2022-10-09T08:39:01.255Z,14.81
2022-10-09T08:41:45.622Z,14.95
2022-10-09T08:44:25.066Z,15.03
2022-10-09T08:47:03.342Z,15.09
2022-10-09T08:49:42.256Z,15.38
2022-10-09T08:52:25.639Z,15.59
2022-10-09T08:54:56.863Z,15.58
2022-10-09T08:57:28.121Z,15.75
2022-10-09T09:00:22.195Z,16.03
2022-10-09T09:03:27.196Z,16.22
2022-10-09T09:06:01.014Z,16.62
2022-10-09T09:08:42.163Z,16.79
2022-10-09T09:11:23.435Z,16.98
2022-10-09T09:14:03.814Z,17.10
2022-10-09T09:16:45.132Z,17.30
2022-10-09T09:19:39.447Z,17.48
2022-10-09T09:22:12.973Z,17.75
2022-10-09T09:24:45.859Z,17.79
2022-10-09T09:27:19.188Z,17.74
2022-10-09T09:29:55.595Z,17.79
2022-10-09T09:32:28.685Z,17.78
2022-10-09T09:35:13.132Z,18.10
2022-10-09T09:37:41.275Z,18.28
2022-10-09T09:40:36.719Z,18.41
2022-10-09T09:43:14.662Z,18.48
2022-10-09T09:45:44.127Z,18.58
2022-10-09T09:48:40.901Z,18.55
2022-10-09T09:51:27.906Z,18.48
2022-10-09T09:54:00.478Z,18.69
2022-10-09T09:57:06.877Z,18.78
2022-10-09T09:59:33.946Z,18.92
2022-10-09T10:02:15.232Z,18.87
2022-10-09T10:04:59.651Z,18.89
2022-10-09T10:07:30.603Z,18.98
2022-10-09T10:10:08.341Z,19.35
2022-10-09T10:12:42.290Z,19.36
2022-10-09T10:15:21.224Z,19.22
2022-10-09T10:17:55.959Z,18.86
2022-10-09T10:20:25.737Z,18.93
2022-10-09T10:22:57.687Z,18.96
2022-10-09T10:25:32.670Z,18.66
2022-10-09T10:28:07.386Z,18.72
2022-10-09T10:30:38.564Z,18.73
2022-10-09T10:33:19.565Z,18.99
2022-10-09T10:35:53.463Z,19.27
2022-10-09T10:38:28.253Z,19.09
2022-10-09T10:41:06.367Z,18.95
2022-10-09T10:43:43.049Z,19.13
2022-10-09T10:46:23.771Z,19.45
2022-10-09T10:48:52.199Z,19.68
2022-10-09T10:51:51.193Z,19.65
2022-10-09T10:54:34.560Z,19.55
2022-10-09T10:57:11.705Z,19.89
2022-10-09T10:59:45.179Z,20.39
2022-10-09T11:03:05.232Z,20.64
2022-10-09T11:05:46.114Z,20.99
2022-10-09T11:08:49.374Z,21.05
2022-10-09T11:11:23.669Z,20.88
2022-10-09T11:14:03.426Z,20.85
2022-10-09T11:16:49.782Z,21.07
2022-10-09T11:19:45.801Z,21.27
2022-10-09T11:22:31.684Z,21.23
2022-10-09T11:25:22.252Z,21.32
2022-10-09T11:27:55.902Z,21.24
2022-10-09T11:30:26.571Z,21.05
2022-10-09T11:33:00.381Z,20.86
2022-10-09T11:35:35.253Z,20.79
2022-10-09T11:38:08.112Z,20.64
2022-10-09T11:40:43.476Z,20.55
2022-10-09T11:43:29.087Z,20.57
2022-10-09T11:46:05.771Z,20.52
2022-10-09T11:48:43.686Z,20.54
2022-10-09T11:51:19.578Z,20.49
2022-10-09T11:53:48.627Z,20.54
2022-10-09T11:56:26.229Z,20.65
2022-10-09T11:58:59.419Z,20.51
2022-10-09T12:01:33.070Z,20.49
2022-10-09T12:04:05.728Z,20.52
2022-10-09T12:06:46.081Z,20.45
2022-10-09T12:09:24.273Z,20.39
2022-10-09T12:12:07.273Z,20.35
2022-10-09T12:14:37.826Z,20.28
2022-10-09T12:17:18.122Z,20.32
2022-10-09T12:19:46.649Z,20.40
2022-10-09T12:22:19.447Z,20.35
2022-10-09T12:24:51.243Z,20.22
2022-10-09T12:27:25.065Z,20.21
2022-10-09T12:29:57.442Z,20.19
2022-10-09T12:32:30.185Z,20.20
2022-10-09T12:34:58.977Z,20.20
2022-10-09T12:37:35.499Z,20.08
2022-10-09T12:40:14.577Z,20.13
2022-10-09T12:42:45.990Z,20.12
2022-10-09T12:45:20.056Z,20.07
2022-10-09T12:47:48.547Z,20.00
2022-10-09T12:50:29.104Z,20.04
2022-10-09T12:53:00.182Z,20.01
2022-10-09T12:55:31.281Z,20.00
2022-10-09T12:58:04.493Z,19.93
2022-10-09T13:00:34.361Z,19.84
2022-10-09T13:03:02.657Z,19.84
2022-10-09T13:05:39.104Z,19.88
2022-10-09T13:08:16.908Z,19.88
2022-10-09T13:10:45.013Z,19.91
2022-10-09T13:13:22.222Z,19.93
2022-10-09T13:16:02.017Z,19.83
2022-10-09T13:18:30.556Z,19.83
2022-10-09T13:21:05.922Z,19.82
2022-10-09T13:23:36.411Z,19.85
2022-10-09T13:26:06.695Z,19.78
2022-10-09T13:28:36.272Z,19.76
2022-10-09T13:31:08.091Z,19.74
2022-10-09T13:33:36.386Z,19.74
2022-10-09T13:36:04.748Z,19.79
2022-10-09T13:38:35.058Z,19.83
2022-10-09T13:41:03.908Z,19.81
2022-10-09T13:43:32.207Z,19.80
2022-10-09T13:46:01.696Z,19.68
2022-10-09T13:48:31.219Z,19.64
2022-10-09T13:50:59.811Z,19.68
2022-10-09T13:53:28.441Z,19.69
2022-10-09T13:56:00.746Z,19.72
2022-10-09T13:58:29.727Z,19.67
2022-10-09T14:00:58.880Z,19.66
2022-10-09T14:03:28.378Z,19.71
2022-10-09T14:05:59.679Z,19.72
2022-10-09T14:08:28.090Z,19.72
2022-10-09T14:10:56.274Z,19.73
2022-10-09T14:13:24.326Z,19.72
2022-10-09T14:15:53.091Z,19.70
2022-10-09T14:18:21.481Z,19.54
2022-10-09T14:20:51.176Z,19.57
2022-10-09T14:23:19.248Z,19.52
2022-10-09T14:25:47.290Z,19.53
2022-10-09T14:28:15.413Z,19.54
2022-10-09T14:30:46.052Z,19.56
2022-10-09T14:33:14.103Z,19.50
2022-10-09T14:35:42.104Z,19.54
2022-10-09T14:38:11.483Z,19.55
2022-10-09T14:40:43.482Z,19.37
2022-10-09T14:43:11.843Z,19.41
2022-10-09T14:45:39.941Z,19.46
2022-10-09T14:48:08.056Z,19.51
2022-10-09T14:50:37.336Z,19.40
2022-10-09T14:53:05.399Z,19.35
2022-10-09T14:55:36.771Z,19.25
2022-10-09T14:58:04.795Z,19.17
2022-10-09T15:00:33.591Z,19.23
2022-10-09T15:03:01.623Z,19.18
2022-10-09T15:05:29.790Z,19.24
2022-10-09T15:07:57.841Z,19.28
2022-10-09T15:10:25.910Z,19.22
2022-10-09T15:12:55.306Z,19.20
2022-10-09T15:15:23.345Z,19.21
2022-10-09T15:17:51.612Z,19.27
2022-10-09T15:20:20.409Z,19.22
2022-10-09T15:22:49.371Z,19.20
2022-10-09T15:25:17.599Z,19.15
2022-10-09T15:27:45.700Z,19.07
2022-10-09T15:30:15.385Z,19.04
2022-10-09T15:32:43.489Z,19.07
2022-10-09T15:35:11.555Z,18.98
2022-10-09T15:37:39.691Z,18.96
2022-10-09T15:40:09.082Z,18.93
2022-10-09T15:42:37.663Z,18.88
2022-10-09T15:45:07.027Z,18.88
2022-10-09T15:47:50.606Z,18.90
2022-10-09T15:50:19.623Z,18.63
2022-10-09T15:52:47.960Z,18.71
2022-10-09T15:55:16.489Z,18.61
2022-10-09T15:57:44.552Z,18.70
2022-10-09T16:00:14.482Z,18.75
2022-10-09T16:02:44.080Z,18.68
2022-10-09T16:05:12.234Z,18.64
2022-10-09T16:07:41.303Z,18.62
2022-10-09T16:10:10.235Z,18.66
2022-10-09T16:12:38.423Z,18.57
2022-10-09T16:15:07.895Z,18.51
2022-10-09T16:17:35.950Z,18.53
2022-10-09T16:20:06.501Z,18.50
2022-10-09T16:22:34.889Z,18.42
2022-10-09T16:25:02.994Z,18.37
2022-10-09T16:27:31.555Z,18.37
2022-10-09T16:29:59.595Z,18.33
2022-10-09T16:32:29.817Z,18.30
2022-10-09T16:34:57.964Z,18.21
2022-10-09T16:37:27.337Z,18.21
2022-10-09T16:39:55.436Z,18.22
2022-10-09T16:42:23.500Z,18.18
2022-10-09T16:44:51.619Z,18.14
2022-10-09T16:47:19.886Z,18.10
2022-10-09T16:49:47.949Z,18.03
2022-10-09T16:52:16.319Z,18.02
2022-10-09T16:54:46.208Z,17.94
2022-10-09T16:57:14.427Z,17.82
2022-10-09T16:59:44.153Z,17.84
2022-10-09T17:02:12.371Z,17.81
2022-10-09T17:04:41.196Z,17.85
2022-10-09T17:07:10.400Z,17.64
2022-10-09T17:09:40.380Z,17.69
2022-10-09T17:12:12.981Z,17.70
2022-10-09T17:14:41.730Z,17.71
2022-10-09T17:17:12.229Z,17.70
2022-10-09T17:19:41.142Z,17.63
2022-10-09T17:22:09.401Z,17.64
2022-10-09T17:24:37.528Z,17.71
2022-10-09T17:27:09.646Z,17.70
2022-10-09T17:29:39.884Z,17.63
2022-10-09T17:32:09.292Z,17.62
2022-10-09T17:34:42.897Z,17.64
2022-10-09T17:37:10.989Z,17.71
2022-10-09T17:39:39.229Z,17.68
2022-10-09T17:42:07.448Z,17.66
2022-10-09T17:44:35.582Z,17.59
2022-10-09T17:47:06.165Z,17.58
2022-10-09T17:49:34.307Z,17.55
2022-10-09T17:52:02.352Z,17.51
2022-10-09T17:54:30.486Z,17.46
2022-10-09T17:57:00.212Z,17.39
2022-10-09T17:59:28.432Z,17.23
2022-10-09T18:01:56.519Z,17.17
2022-10-09T18:04:25.884Z,17.09
2022-10-09T18:06:53.941Z,17.10
2022-10-09T18:09:22.663Z,17.01
2022-10-09T18:11:51.042Z,16.87
2022-10-09T18:14:19.132Z,16.86
2022-10-09T18:16:47.605Z,16.85
2022-10-09T18:19:18.502Z,16.78
2022-10-09T18:21:50.585Z,16.71
2022-10-09T18:24:19.236Z,16.60
2022-10-09T18:26:47.631Z,16.42
2022-10-09T18:29:18.304Z,16.51
2022-10-09T18:31:46.410Z,16.53
2022-10-09T18:34:14.512Z,16.58
2022-10-09T18:36:42.838Z,16.59
2022-10-09T18:39:15.712Z,16.58
2022-10-09T18:41:44.526Z,16.57
2022-10-09T18:44:18.546Z,16.63
2022-10-09T18:46:51.658Z,16.62
2022-10-09T18:49:23.564Z,16.59
2022-10-09T18:51:52.599Z,16.57
2022-10-09T18:54:24.519Z,16.49
2022-10-09T18:56:52.768Z,16.43
2022-10-09T18:59:23.150Z,16.51
2022-10-09T19:01:51.237Z,16.53
2022-10-09T19:04:19.617Z,16.58
2022-10-09T19:06:47.973Z,16.56
2022-10-09T19:09:17.350Z,16.59
2022-10-09T19:11:47.038Z,16.55
2022-10-09T19:14:16.152Z,16.62
2022-10-09T19:16:45.802Z,16.60
2022-10-09T19:19:14.165Z,16.55
2022-10-09T19:21:43.912Z,16.56
2022-10-09T19:24:12.856Z,16.50
2022-10-09T19:26:41.806Z,16.51
2022-10-09T19:29:11.406Z,16.56
2022-10-09T19:31:39.661Z,16.59
2022-10-09T19:34:08.531Z,16.46
2022-10-09T19:36:36.868Z,16.50
2022-10-09T19:39:05.915Z,16.48
2022-10-09T19:41:34.282Z,16.43
2022-10-09T19:44:02.663Z,16.49
2022-10-09T19:46:32.463Z,16.55
2022-10-09T19:49:00.591Z,16.55
2022-10-09T19:51:29.049Z,16.49
2022-10-09T19:53:59.107Z,16.54
2022-10-09T19:56:30.317Z,16.51
2022-10-09T19:59:02.421Z,16.60
2022-10-09T20:01:35.210Z,16.60
2022-10-09T20:04:07.769Z,16.64
2022-10-09T20:06:38.973Z,16.68
2022-10-09T20:09:07.598Z,16.66
2022-10-09T20:11:35.890Z,16.69
2022-10-09T20:14:05.848Z,16.73
2022-10-09T20:16:36.689Z,16.73
2022-10-09T20:19:05.936Z,16.74
2022-10-09T20:21:35.299Z,16.71
2022-10-09T20:24:03.721Z,16.72
2022-10-09T20:26:33.166Z,16.74
2022-10-09T20:29:01.237Z,16.73
2022-10-09T20:31:30.226Z,16.74
2022-10-09T20:34:00.023Z,16.77
2022-10-09T20:36:31.923Z,16.76
2022-10-09T20:39:02.009Z,16.75
2022-10-09T20:41:31.869Z,16.80
2022-10-09T20:44:03.296Z,16.83
2022-10-09T20:46:34.591Z,16.81
2022-10-09T20:49:06.588Z,16.82
2022-10-09T20:51:36.354Z,16.79
2022-10-09T20:54:30.677Z,16.76
2022-10-09T20:56:58.741Z,16.76
2022-10-09T20:59:27.260Z,16.78
2022-10-09T21:01:55.270Z,16.80
2022-10-09T21:04:24.783Z,16.84
2022-10-09T21:06:52.891Z,16.81
2022-10-09T21:09:21.042Z,16.77
2022-10-09T21:11:50.521Z,16.80
2022-10-09T21:14:18.551Z,16.81
2022-10-09T21:16:46.662Z,16.80
2022-10-09T21:19:14.782Z,16.79
2022-10-09T21:21:50.063Z,16.75
2022-10-09T21:24:19.081Z,16.71
2022-10-09T21:26:47.689Z,16.70
2022-10-09T21:29:15.887Z,16.68
2022-10-09T21:31:43.962Z,16.67
2022-10-09T21:34:12.032Z,16.70
2022-10-09T21:37:19.931Z,16.71
2022-10-09T21:39:33.305Z,16.64
2022-10-09T21:42:01.371Z,16.61
2022-10-09T21:44:30.045Z,16.56
2022-10-09T21:46:58.118Z,16.57
2022-10-09T21:49:28.575Z,16.55
2022-10-09T21:51:58.257Z,16.54
2022-10-09T21:54:26.511Z,16.49
2022-10-09T21:56:54.513Z,16.51
2022-10-09T21:59:22.585Z,16.46
2022-10-09T22:01:50.625Z,16.43
2022-10-09T22:04:18.732Z,16.42
2022-10-09T22:06:46.818Z,16.42
2022-10-09T22:09:16.438Z,16.38
2022-10-09T22:11:45.115Z,16.34
2022-10-09T22:14:13.738Z,16.22
2022-10-09T22:16:41.842Z,16.22
2022-10-09T22:19:09.911Z,16.19
2022-10-09T22:21:38.027Z,16.15
2022-10-09T22:24:06.415Z,16.14
2022-10-09T22:26:36.440Z,16.07
2022-10-09T22:29:04.489Z,15.99
2022-10-09T22:31:32.608Z,15.93
2022-10-09T22:34:02.730Z,15.95
2022-10-09T22:36:33.831Z,15.88
2022-10-09T22:39:05.533Z,15.83
2022-10-09T22:41:36.080Z,15.77
2022-10-09T22:44:06.473Z,15.74
2022-10-09T22:46:37.094Z,15.70
2022-10-09T22:49:05.794Z,15.63
2022-10-09T22:51:33.909Z,15.63
2022-10-09T22:54:02.686Z,15.53
2022-10-09T22:56:33.878Z,15.42
2022-10-09T22:59:03.443Z,15.45
2022-10-09T23:01:35.873Z,15.44
2022-10-09T23:04:07.110Z,15.49
2022-10-09T23:06:35.292Z,15.47
2022-10-09T23:09:06.992Z,15.44
2022-10-09T23:11:36.467Z,15.44
2022-10-09T23:14:06.989Z,15.55
2022-10-09T23:16:35.850Z,15.53
2022-10-09T23:19:07.164Z,15.55
2022-10-09T23:21:36.362Z,15.56
2022-10-09T23:24:10.978Z,15.59
2022-10-09T23:26:39.559Z,15.60
2022-10-09T23:29:14.434Z,15.58
2022-10-09T23:31:42.650Z,15.51
2022-10-09T23:34:11.339Z,15.51
2022-10-09T23:36:39.509Z,15.53
2022-10-09T23:39:08.173Z,15.58
2022-10-09T23:41:36.496Z,15.54
2022-10-09T23:44:05.238Z,15.57
2022-10-09T23:46:35.480Z,15.55
2022-10-09T23:49:04.897Z,15.56
2022-10-09T23:51:34.855Z,15.55
2022-10-09T23:54:02.933Z,15.52
2022-10-09T23:56:33.965Z,15.55
2022-10-09T23:59:06.197Z,15.56
